Terminal Aerodrome Forecast
Issued by NWS

Home | Current Version | Previous Version | Text Only | Print | Product List | Glossary On
Versions: 1 2 3 4 5 6 7 8 9 10 11 12 13 14 15 16 17 18 19 20 21 22 23 24 25
808
FTUS43 KDLH 272206 AAF
TAFBRD
TAF AMD
KBRD 272206Z 2722/2818 05008KT P6SM SCT025 BKN060
     FM280000 VRB03KT P6SM SCT040 SCT080
     FM280600 VRB02KT 3SM BR SCT010
      TEMPO 2808/2812 1/2SM FG SCT005
     FM281200 05006KT P6SM SCT040=

USA.gov is the U.S. government's official web portal to all federal, state and local government web resources and services.